This is the latest recevied weather packets stored in our database for station/object KJ4HF. If no packets are shown the sender has not sent any weather packets the latest 10 day(s).
| Time | Temp. | Humidity | Pressure | Rain* | Wind** | Luminosity | Snow |
|---|---|---|---|---|---|---|---|
| 1777871442 | 11.67° C | 66% | 1017 hPa | 0 mm | - | 0 W/m² | - |
| 1777869644 | 11.11° C | 67% | 1016.8 hPa | 0 mm | - | 0 W/m² | - |
| 1777865142 | 10.56° C | 66% | 1017.3 hPa | 0 mm | - | 0 W/m² | - |
| 1777864550 | 10° C | 67% | 1017.3 hPa | 0 mm | - | 0 W/m² | - |
| 1777864241 | 10° C | 65% | 1017.2 hPa | 0 mm | - | 0 W/m² | - |
| 1777859744 | 10.56° C | 65% | 1016.7 hPa | 0 mm | - | 0 W/m² | - |
| 1777858542 | 10.56° C | 63% | 1016.6 hPa | 0 mm | - | 0 W/m² | - |
| 1777856461 | 11.67° C | 56% | 1016.3 hPa | 0 mm | - | 0 W/m² | - |
| 1777855843 | 12.22° C | 55% | 1016.1 hPa | 0 mm | - | 0 W/m² | - |
| 1777854344 | 12.78° C | 51% | 1016 hPa | 0 mm | - | 0 W/m² | - |
| 1777852849 | 14.44° C | 46% | 1015.8 hPa | 0 mm | - | 9 W/m² | - |
| 1777852542 | 14.44° C | 45% | 1015.8 hPa | 0 mm | - | 11 W/m² | - |
| 1777852242 | 14.44° C | 45% | 1015.8 hPa | 0 mm | - | 12 W/m² | - |
| 1777851952 | 15° C | 45% | 1015.8 hPa | 0 mm | - | 16 W/m² | - |
| 1777849844 | 16.67° C | 40% | 1015.9 hPa | 0 mm | - | 30 W/m² | - |
| 1777848642 | 17.22° C | 34% | 1015.9 hPa | 0 mm | - | 35 W/m² | - |
| 1777847743 | 17.78° C | 35% | 1016.1 hPa | 0 mm | - | 39 W/m² | - |
| 1777846844 | 18.89° C | 34% | 1016.1 hPa | 0 mm | - | 260 W/m² | - |
| 1777845941 | 18.89° C | 30% | 1016.2 hPa | 0 mm | - | 322 W/m² | - |
| 1777842643 | 19.44° C | 29% | 1016.7 hPa | 0 mm | - | 589 W/m² | - |
| 1777838741 | 19.44° C | 28% | 1017.2 hPa | 0 mm | - | 795 W/m² | - |
| 1777837551 | 18.89° C | 33% | 1017.5 hPa | 0 mm | - | 844 W/m² | - |
| 1777836041 | 19.44° C | 32% | 1017.8 hPa | 0 mm | - | 900 W/m² | - |
| 1777835753 | 18.89° C | 35% | 1017.9 hPa | 0 mm | - | 911 W/m² | - |
| 1777835443 | 18.33° C | 30% | 1017.9 hPa | 0 mm | - | 921 W/m² | - |
* Rain latest hour (hover to see other rain measurements)
** Current wind speed in m/s (hover to see current wind gust speed)